Time;durP1;ratioP1;P1;durP2;ratioP2;P2;SDS_P1;SDS_P2;PMS_P1;PMS_P2;Temp;Humidity;BMP_temperature;BMP_pressure;BME280_temperature;BME280_humidity;BME280_pressure;Samples;Min_cycle;Max_cycle;Signal;HPM_P1;HPM_P2
2021/11/11 00:00:48;;;;;;;3.45;2.33;;;;;;;;;;4934278;29;20043;-76
2021/11/11 00:03:14;;;;;;;4.05;2.50;;;;;;;;;;4934088;29;20138;-76
2021/11/11 00:05:40;;;;;;;2.58;2.20;;;;;;;;;;4916992;29;20139;-77
2021/11/11 00:08:05;;;;;;;5.47;2.40;;;;;;;;;;4933762;29;20044;-75
2021/11/11 00:10:32;;;;;;;4.43;2.33;;;;;;;;;;4933962;29;20043;-76
2021/11/11 00:12:59;;;;;;;4.35;2.47;;;;;;;;;;4934002;29;20508;-76
2021/11/11 00:15:25;;;;;;;3.55;2.63;;;;;;;;;;4933973;29;20050;-76
2021/11/11 00:17:52;;;;;;;4.57;2.40;;;;;;;;;;4934044;29;20058;-76
2021/11/11 00:20:21;;;;;;;2.67;2.47;;;;;;;;;;4933866;29;20075;-76
2021/11/11 00:22:48;;;;;;;6.45;2.47;;;;;;;;;;4934067;29;20039;-77
2021/11/11 00:25:16;;;;;;;6.25;2.40;;;;;;;;;;4933724;29;20044;-76
2021/11/11 00:27:42;;;;;;;3.67;2.72;;;;;;;;;;4933810;29;20074;-76
2021/11/11 00:30:12;;;;;;;3.45;3.15;;;;;;;;;;4933721;29;20067;-76
2021/11/11 00:32:39;;;;;;;3.00;2.58;;;;;;;;;;4916630;29;20099;-77
2021/11/11 00:35:10;;;;;;;2.65;2.38;;;;;;;;;;4932424;29;20505;-76
2021/11/11 00:37:36;;;;;;;3.13;2.88;;;;;;;;;;4933829;29;20047;-77
2021/11/11 00:40:04;;;;;;;5.07;2.92;;;;;;;;;;4933864;29;20047;-76
2021/11/11 00:42:29;;;;;;;7.25;3.42;;;;;;;;;;4933753;29;20043;-77
2021/11/11 00:44:55;;;;;;;6.57;2.17;;;;;;;;;;4933650;29;20473;-77
2021/11/11 00:47:21;;;;;;;3.75;2.47;;;;;;;;;;4932473;29;20569;-77
2021/11/11 00:49:46;;;;;;;3.65;2.75;;;;;;;;;;4936052;29;20128;-76
2021/11/11 00:52:11;;;;;;;5.40;3.55;;;;;;;;;;4937050;29;20170;-76
2021/11/11 00:54:39;;;;;;;5.72;2.28;;;;;;;;;;4937042;29;20068;-76
2021/11/11 00:57:06;;;;;;;6.82;2.05;;;;;;;;;;4937143;29;20105;-75
2021/11/11 00:59:32;;;;;;;5.25;2.22;;;;;;;;;;4937027;29;20418;-76
2021/11/11 01:01:57;;;;;;;4.20;3.50;;;;;;;;;;4936999;29;20050;-77
2021/11/11 01:04:23;;;;;;;3.83;2.65;;;;;;;;;;4937108;29;20114;-76
2021/11/11 01:06:49;;;;;;;2.45;2.30;;;;;;;;;;4936935;29;20040;-75
2021/11/11 01:09:14;;;;;;;4.05;2.95;;;;;;;;;;4936649;29;20044;-75
2021/11/11 01:11:42;;;;;;;2.40;2.20;;;;;;;;;;4937285;29;20038;-75
2021/11/11 01:14:07;;;;;;;4.10;2.53;;;;;;;;;;4936988;29;20051;-75
2021/11/11 01:16:33;;;;;;;4.03;1.55;;;;;;;;;;4936966;29;20454;-74
2021/11/11 01:18:58;;;;;;;4.03;2.15;;;;;;;;;;4936531;29;20054;-76
2021/11/11 01:21:24;;;;;;;7.30;2.55;;;;;;;;;;4936675;29;20406;-77
2021/11/11 01:23:49;;;;;;;2.60;1.92;;;;;;;;;;4937099;29;20465;-76
2021/11/11 01:26:15;;;;;;;4.00;2.70;;;;;;;;;;4936665;29;20134;-76
2021/11/11 01:28:41;;;;;;;5.28;2.35;;;;;;;;;;4936519;29;20493;-75
2021/11/11 01:31:06;;;;;;;3.80;2.33;;;;;;;;;;4936598;29;20054;-76
2021/11/11 01:33:32;;;;;;;3.28;2.17;;;;;;;;;;4936434;29;20090;-76
2021/11/11 01:35:58;;;;;;;3.58;2.15;;;;;;;;;;4936335;29;20042;-75
2021/11/11 01:38:24;;;;;;;5.63;2.47;;;;;;;;;;4936679;29;20417;-75
2021/11/11 01:40:50;;;;;;;7.15;2.75;;;;;;;;;;4935194;29;20042;-76
2021/11/11 01:43:16;;;;;;;2.25;2.15;;;;;;;;;;4936719;29;20044;-75
2021/11/11 01:45:43;;;;;;;3.80;2.42;;;;;;;;;;4936431;29;20501;-75
2021/11/11 01:48:12;;;;;;;2.67;2.00;;;;;;;;;;4936290;29;20155;-76
2021/11/11 01:50:39;;;;;;;7.18;2.20;;;;;;;;;;4934837;29;20035;-75
2021/11/11 01:53:05;;;;;;;4.00;2.30;;;;;;;;;;4935882;29;20171;-75
2021/11/11 01:55:31;;;;;;;4.00;2.40;;;;;;;;;;4936092;29;20043;-76
2021/11/11 01:57:58;;;;;;;5.55;2.35;;;;;;;;;;4936090;29;20036;-76
2021/11/11 02:00:34;;;;;;;6.70;2.65;;;;;;;;;;4935591;29;20040;-76
2021/11/11 02:03:02;;;;;;;2.67;2.47;;;;;;;;;;4935842;29;20134;-75
2021/11/11 02:05:29;;;;;;;2.65;2.30;;;;;;;;;;4935966;29;20054;-76
2021/11/11 02:07:55;;;;;;;3.72;3.03;;;;;;;;;;4935775;29;20052;-76
2021/11/11 02:10:22;;;;;;;2.63;2.08;;;;;;;;;;4935797;29;20050;-76
2021/11/11 02:12:47;;;;;;;2.63;2.17;;;;;;;;;;4936226;29;20047;-75
2021/11/11 02:15:14;;;;;;;2.28;1.95;;;;;;;;;;4935782;29;20519;-76
2021/11/11 02:17:40;;;;;;;3.15;2.15;;;;;;;;;;4935368;29;20501;-75
2021/11/11 02:20:10;;;;;;;2.78;2.20;;;;;;;;;;4935800;29;20104;-75
2021/11/11 02:22:36;;;;;;;4.18;2.92;;;;;;;;;;4934370;29;20051;-74
2021/11/11 02:25:08;;;;;;;3.03;2.40;;;;;;;;;;4935448;29;20050;-75
2021/11/11 02:27:33;;;;;;;2.03;1.35;;;;;;;;;;4935386;29;20367;-76
2021/11/11 02:29:59;;;;;;;5.47;3.25;;;;;;;;;;4935400;29;20039;-76
2021/11/11 02:32:29;;;;;;;3.13;2.20;;;;;;;;;;4935390;29;20476;-75
2021/11/11 02:34:55;;;;;;;2.83;2.35;;;;;;;;;;4935254;29;20047;-76
2021/11/11 02:37:20;;;;;;;5.70;2.42;;;;;;;;;;4935054;29;20043;-77
2021/11/11 02:39:46;;;;;;;3.20;1.20;;;;;;;;;;4935458;29;20383;-76
2021/11/11 02:42:11;;;;;;;4.22;2.40;;;;;;;;;;4935287;29;20044;-76
2021/11/11 02:44:42;;;;;;;3.92;2.33;;;;;;;;;;4934997;29;20131;-76
2021/11/11 02:47:07;;;;;;;2.78;2.47;;;;;;;;;;4934960;29;20107;-76
2021/11/11 02:49:33;;;;;;;4.10;3.03;;;;;;;;;;4935308;29;20047;-76
2021/11/11 02:52:00;;;;;;;4.70;2.42;;;;;;;;;;4934988;29;20417;-75
2021/11/11 02:54:25;;;;;;;2.35;2.15;;;;;;;;;;4934117;29;20118;-76
2021/11/11 02:56:51;;;;;;;4.82;2.72;;;;;;;;;;4934166;29;20545;-75
2021/11/11 02:59:17;;;;;;;3.05;2.85;;;;;;;;;;4934390;29;20044;-74
2021/11/11 03:01:42;;;;;;;3.22;2.67;;;;;;;;;;4933956;29;20051;-75
2021/11/11 03:04:07;;;;;;;6.05;2.78;;;;;;;;;;4934154;29;20122;-76
2021/11/11 03:06:33;;;;;;;3.58;2.78;;;;;;;;;;4932879;29;20043;-75
2021/11/11 03:09:00;;;;;;;2.65;2.30;;;;;;;;;;4933925;29;20043;-75
2021/11/11 03:11:30;;;;;;;2.75;2.22;;;;;;;;;;4932877;29;20592;-76
2021/11/11 03:13:55;;;;;;;4.22;2.65;;;;;;;;;;4933708;29;20055;-75
2021/11/11 03:16:21;;;;;;;4.32;4.03;;;;;;;;;;4934336;29;20450;-76
2021/11/11 03:18:47;;;;;;;4.25;2.70;;;;;;;;;;4932251;29;20067;-75
2021/11/11 03:21:12;;;;;;;2.55;2.35;;;;;;;;;;4933814;29;20067;-75
2021/11/11 03:23:38;;;;;;;4.03;2.40;;;;;;;;;;4932941;29;20031;-76
2021/11/11 03:26:03;;;;;;;3.00;2.45;;;;;;;;;;4933695;29;20073;-77
2021/11/11 03:28:29;;;;;;;6.40;3.42;;;;;;;;;;4933347;29;20047;-76
2021/11/11 03:30:55;;;;;;;4.93;2.22;;;;;;;;;;4933729;29;20047;-76
2021/11/11 03:33:20;;;;;;;4.28;2.58;;;;;;;;;;4933925;29;20549;-77
2021/11/11 03:35:46;;;;;;;7.72;4.90;;;;;;;;;;4933761;29;20471;-74
2021/11/11 03:38:12;;;;;;;2.70;2.53;;;;;;;;;;4933618;29;20122;-77
2021/11/11 03:40:42;;;;;;;6.30;2.20;;;;;;;;;;4932813;29;20103;-76
2021/11/11 03:43:08;;;;;;;3.40;2.03;;;;;;;;;;4933331;29;20560;-75
2021/11/11 03:45:35;;;;;;;6.95;4.43;;;;;;;;;;4933359;29;20039;-75
2021/11/11 03:48:00;;;;;;;2.65;2.42;;;;;;;;;;4933210;29;20040;-76
2021/11/11 03:50:26;;;;;;;3.70;2.45;;;;;;;;;;4933241;29;20043;-75
2021/11/11 03:52:54;;;;;;;5.57;2.67;;;;;;;;;;4891304;29;1216656;-77
2021/11/11 03:55:23;;;;;;;2.53;2.35;;;;;;;;;;4916687;29;20043;-76
2021/11/11 03:57:51;;;;;;;3.67;2.40;;;;;;;;;;4916817;29;20047;-75
2021/11/11 04:00:17;;;;;;;6.63;5.05;;;;;;;;;;4932772;29;20449;-75
2021/11/11 04:02:43;;;;;;;7.55;3.75;;;;;;;;;;4933736;29;20047;-76
2021/11/11 04:05:09;;;;;;;2.47;2.25;;;;;;;;;;4933744;29;20043;-75
2021/11/11 04:07:34;;;;;;;5.68;2.70;;;;;;;;;;4933782;29;20442;-74
2021/11/11 04:10:00;;;;;;;2.95;2.75;;;;;;;;;;4933241;29;20528;-75
2021/11/11 04:12:25;;;;;;;3.28;2.63;;;;;;;;;;4933812;29;20044;-75
2021/11/11 04:14:51;;;;;;;4.18;2.80;;;;;;;;;;4933562;29;20076;-75
2021/11/11 04:17:16;;;;;;;10.50;3.17;;;;;;;;;;4933623;29;20106;-75
2021/11/11 04:19:42;;;;;;;3.40;2.75;;;;;;;;;;4933022;29;20044;-75
2021/11/11 04:22:08;;;;;;;4.50;2.83;;;;;;;;;;4933229;29;20052;-75
2021/11/11 04:24:34;;;;;;;7.35;2.10;;;;;;;;;;4936654;29;20422;-75
2021/11/11 04:27:07;;;;;;;5.32;3.80;;;;;;;;;;4937297;29;20047;-75
2021/11/11 04:29:36;;;;;;;4.32;2.90;;;;;;;;;;4937242;29;20047;-76
2021/11/11 04:32:03;;;;;;;4.22;3.17;;;;;;;;;;4937066;29;20047;-75
2021/11/11 04:34:31;;;;;;;3.97;3.55;;;;;;;;;;4937210;29;20062;-74
2021/11/11 05:05:21;;;;;;;5.30;2.35;;;;;;;;;;4937066;29;20046;-74
2021/11/11 05:07:47;;;;;;;3.45;2.50;;;;;;;;;;4936553;29;20047;-75
2021/11/11 05:10:14;;;;;;;8.00;4.03;;;;;;;;;;4936317;29;20122;-76
2021/11/11 05:12:40;;;;;;;5.13;3.55;;;;;;;;;;4935094;29;20127;-75
2021/11/11 05:15:07;;;;;;;6.00;3.40;;;;;;;;;;4936320;29;20039;-75
2021/11/11 05:17:32;;;;;;;5.53;3.42;;;;;;;;;;4936365;29;20035;-76
2021/11/11 05:19:58;;;;;;;2.08;1.88;;;;;;;;;;4936348;29;20401;-76
2021/11/11 05:22:23;;;;;;;6.10;3.25;;;;;;;;;;4935267;29;20043;-75
2021/11/11 05:24:49;;;;;;;6.03;3.10;;;;;;;;;;4936441;29;20035;-77
2021/11/11 05:27:19;;;;;;;8.98;3.53;;;;;;;;;;4934722;29;20103;-76
2021/11/11 05:29:45;;;;;;;7.03;3.05;;;;;;;;;;4935554;29;20048;-75
2021/11/11 05:32:11;;;;;;;3.92;3.15;;;;;;;;;;4936159;29;20115;-76
2021/11/11 05:34:37;;;;;;;5.63;3.92;;;;;;;;;;4935331;29;20489;-75
2021/11/11 05:37:03;;;;;;;8.70;3.28;;;;;;;;;;4936123;29;20051;-74
2021/11/11 05:39:28;;;;;;;4.57;3.63;;;;;;;;;;4935823;29;20051;-74
2021/11/11 05:41:54;;;;;;;6.80;2.78;;;;;;;;;;4935735;29;20040;-75
2021/11/11 05:44:19;;;;;;;6.50;2.97;;;;;;;;;;4935939;29;20051;-76
2021/11/11 05:46:45;;;;;;;6.80;3.30;;;;;;;;;;4936148;29;20043;-74
2021/11/11 05:49:11;;;;;;;6.28;3.35;;;;;;;;;;4934594;29;20501;-74
2021/11/11 05:51:37;;;;;;;3.45;3.13;;;;;;;;;;4935860;29;20059;-75
2021/11/11 05:54:02;;;;;;;5.45;2.40;;;;;;;;;;4918519;29;20496;-75
2021/11/11 05:56:28;;;;;;;9.18;3.13;;;;;;;;;;4935547;29;20048;-75
2021/11/11 05:58:53;;;;;;;3.67;2.92;;;;;;;;;;4935534;29;20413;-76
2021/11/11 06:01:19;;;;;;;8.07;3.03;;;;;;;;;;4935079;29;20048;-75
2021/11/11 06:03:45;;;;;;;2.92;1.88;;;;;;;;;;4935858;29;20048;-76
2021/11/11 06:06:11;;;;;;;6.25;3.28;;;;;;;;;;4935398;29;20105;-75
2021/11/11 06:08:36;;;;;;;9.73;3.85;;;;;;;;;;4935208;29;20096;-74
2021/11/11 06:11:02;;;;;;;4.97;3.08;;;;;;;;;;4934914;29;20552;-75
2021/11/11 06:13:27;;;;;;;4.00;3.20;;;;;;;;;;4935586;29;20039;-76
2021/11/11 06:15:53;;;;;;;3.88;3.00;;;;;;;;;;4935261;29;20107;-74
2021/11/11 06:18:20;;;;;;;5.63;2.67;;;;;;;;;;4935662;29;21046;-75
2021/11/11 06:20:53;;;;;;;5.45;3.15;;;;;;;;;;4935493;29;20498;-75
2021/11/11 06:23:18;;;;;;;3.88;3.20;;;;;;;;;;4935519;29;20470;-76
2021/11/11 06:25:44;;;;;;;4.13;3.72;;;;;;;;;;4935010;29;20058;-77
2021/11/11 06:28:10;;;;;;;6.18;2.33;;;;;;;;;;4934899;29;20759;-75
2021/11/11 06:30:35;;;;;;;6.28;4.60;;;;;;;;;;4933422;29;20055;-75
2021/11/11 06:33:01;;;;;;;4.60;3.72;;;;;;;;;;4934856;29;20043;-76
2021/11/11 06:35:31;;;;;;;7.28;2.55;;;;;;;;;;4934867;29;20050;-75
2021/11/11 06:37:58;;;;;;;3.88;3.03;;;;;;;;;;4933621;29;20052;-75
2021/11/11 06:40:24;;;;;;;8.68;3.28;;;;;;;;;;4935154;29;20052;-74
2021/11/11 06:42:49;;;;;;;7.13;3.42;;;;;;;;;;4935024;29;20565;-74
2021/11/11 06:45:16;;;;;;;6.85;4.25;;;;;;;;;;4934807;29;20075;-74
2021/11/11 06:47:42;;;;;;;4.32;3.10;;;;;;;;;;4934575;29;20515;-75
2021/11/11 06:50:09;;;;;;;8.93;3.55;;;;;;;;;;4934604;29;20047;-74
2021/11/11 06:52:36;;;;;;;5.78;3.42;;;;;;;;;;4934398;29;20075;-75
2021/11/11 06:55:03;;;;;;;6.20;3.70;;;;;;;;;;4934653;29;20047;-75
2021/11/11 06:57:29;;;;;;;3.50;2.92;;;;;;;;;;4934550;29;20059;-74
2021/11/11 06:59:54;;;;;;;9.85;4.30;;;;;;;;;;4934476;29;20043;-74
2021/11/11 07:02:20;;;;;;;6.00;3.10;;;;;;;;;;4934198;29;20060;-74
2021/11/11 07:04:46;;;;;;;6.65;3.60;;;;;;;;;;4934561;29;20073;-77
2021/11/11 07:07:12;;;;;;;6.03;3.65;;;;;;;;;;4917583;29;20114;-75
2021/11/11 07:09:37;;;;;;;9.27;3.47;;;;;;;;;;4934427;29;20523;-73
2021/11/11 07:12:03;;;;;;;6.63;5.45;;;;;;;;;;4933054;29;20462;-74
2021/11/11 07:14:30;;;;;;;10.27;3.15;;;;;;;;;;4933348;29;20044;-76
2021/11/11 07:16:55;;;;;;;3.80;2.83;;;;;;;;;;4933111;29;20528;-75
2021/11/11 07:19:21;;;;;;;6.50;2.90;;;;;;;;;;4934214;29;20039;-75
2021/11/11 07:21:47;;;;;;;11.45;3.88;;;;;;;;;;4934360;29;20047;-75
2021/11/11 07:24:12;;;;;;;3.20;2.83;;;;;;;;;;4934560;29;20040;-75
2021/11/11 07:26:38;;;;;;;4.82;2.90;;;;;;;;;;4934206;29;20079;-74
2021/11/11 07:29:03;;;;;;;5.07;2.90;;;;;;;;;;4934030;29;20040;-73
2021/11/11 07:31:29;;;;;;;4.40;2.78;;;;;;;;;;4933880;29;20047;-75
2021/11/11 07:33:55;;;;;;;3.83;2.25;;;;;;;;;;4932862;29;20470;-76
2021/11/11 07:36:20;;;;;;;4.53;3.13;;;;;;;;;;4933857;29;20139;-75
2021/11/11 07:38:46;;;;;;;4.57;3.28;;;;;;;;;;4934320;29;20138;-74
2021/11/11 07:41:11;;;;;;;5.00;2.67;;;;;;;;;;4932585;29;20497;-75
2021/11/11 07:43:37;;;;;;;4.43;3.10;;;;;;;;;;4933865;29;20086;-75
2021/11/11 07:46:06;;;;;;;6.43;2.90;;;;;;;;;;4933756;29;20131;-75
2021/11/11 07:48:33;;;;;;;4.28;2.55;;;;;;;;;;4933808;29;20047;-75
2021/11/11 07:51:00;;;;;;;3.95;2.67;;;;;;;;;;4931981;29;20043;-75
2021/11/11 07:53:26;;;;;;;3.00;2.67;;;;;;;;;;4932361;29;20052;-74
2021/11/11 07:55:52;;;;;;;3.08;2.65;;;;;;;;;;4933831;29;20052;-75
2021/11/11 07:58:18;;;;;;;4.93;2.38;;;;;;;;;;4933806;29;20063;-74
2021/11/11 08:00:43;;;;;;;5.75;4.65;;;;;;;;;;4933664;29;20040;-74
2021/11/11 08:03:09;;;;;;;8.27;4.20;;;;;;;;;;4933665;29;20047;-74
2021/11/11 08:05:35;;;;;;;4.35;2.83;;;;;;;;;;4933668;29;20130;-75
2021/11/11 08:08:00;;;;;;;5.13;2.92;;;;;;;;;;4933540;29;20048;-74
2021/11/11 08:10:26;;;;;;;5.35;3.17;;;;;;;;;;4933662;29;20066;-75
2021/11/11 08:12:52;;;;;;;4.22;2.40;;;;;;;;;;4933623;29;20134;-75
2021/11/11 08:15:18;;;;;;;5.18;2.08;;;;;;;;;;4932541;29;20046;-74
2021/11/11 08:17:44;;;;;;;3.05;2.78;;;;;;;;;;4916387;29;20052;-75
2021/11/11 08:20:11;;;;;;;4.75;2.83;;;;;;;;;;4916375;29;20881;-75
2021/11/11 08:22:37;;;;;;;2.22;2.10;;;;;;;;;;4933430;29;20063;-75
2021/11/11 08:25:06;;;;;;;3.50;2.97;;;;;;;;;;4933617;29;20090;-75
2021/11/11 08:27:32;;;;;;;3.40;2.67;;;;;;;;;;4931944;28;20054;-75
2021/11/11 08:29:58;;;;;;;3.58;2.63;;;;;;;;;;4954978;28;20094;-76
2021/11/11 08:32:23;;;;;;;2.45;2.25;;;;;;;;;;4951496;29;20043;-75
2021/11/11 08:34:50;;;;;;;7.55;2.65;;;;;;;;;;4951029;29;20394;-75
2021/11/11 08:37:16;;;;;;;3.05;2.85;;;;;;;;;;4950841;28;20095;-75
2021/11/11 08:39:42;;;;;;;3.08;2.78;;;;;;;;;;4952136;28;20514;-76
2021/11/11 08:42:09;;;;;;;4.88;2.50;;;;;;;;;;4951071;28;20089;-74
2021/11/11 08:44:45;;;;;;;6.05;2.67;;;;;;;;;;4951754;28;20051;-75
2021/11/11 08:47:13;;;;;;;4.88;2.28;;;;;;;;;;4950861;28;20078;-75
2021/11/11 08:49:39;;;;;;;3.63;2.50;;;;;;;;;;4951500;29;20094;-74
2021/11/11 08:52:05;;;;;;;2.90;2.00;;;;;;;;;;4933654;29;20047;-74
2021/11/11 08:54:31;;;;;;;3.90;2.97;;;;;;;;;;4950526;29;20090;-74
2021/11/11 08:56:57;;;;;;;2.58;2.38;;;;;;;;;;4947546;29;20222;-75
2021/11/11 08:59:24;;;;;;;4.28;2.55;;;;;;;;;;4950767;29;20062;-74
2021/11/11 09:01:53;;;;;;;3.72;3.42;;;;;;;;;;4949340;29;20039;-76
2021/11/11 09:04:20;;;;;;;4.65;2.45;;;;;;;;;;4949192;29;20043;-74
2021/11/11 09:06:46;;;;;;;2.78;2.40;;;;;;;;;;4932980;29;20069;-75
2021/11/11 09:09:12;;;;;;;5.35;3.30;;;;;;;;;;4950119;28;20049;-75
2021/11/11 09:11:38;;;;;;;2.35;2.05;;;;;;;;;;4951918;29;20051;-74
2021/11/11 09:14:04;;;;;;;3.88;3.40;;;;;;;;;;4953449;29;20039;-76
2021/11/11 09:16:30;;;;;;;3.13;2.25;;;;;;;;;;4936656;29;20051;-75
2021/11/11 09:18:56;;;;;;;3.92;3.00;;;;;;;;;;4950864;29;20043;-74
2021/11/11 09:21:22;;;;;;;3.90;2.85;;;;;;;;;;4953543;29;20130;-75
2021/11/11 09:23:48;;;;;;;4.22;2.40;;;;;;;;;;4954112;29;20141;-74
2021/11/11 09:26:15;;;;;;;3.15;2.88;;;;;;;;;;4953629;28;20491;-75
2021/11/11 09:28:41;;;;;;;5.43;2.25;;;;;;;;;;4952396;28;20043;-75
2021/11/11 09:31:10;;;;;;;2.75;2.35;;;;;;;;;;4952234;29;20049;-74
2021/11/11 09:33:36;;;;;;;3.03;2.50;;;;;;;;;;4953140;28;20057;-74
2021/11/11 09:36:02;;;;;;;4.20;3.80;;;;;;;;;;4952639;28;20445;-75
2021/11/11 09:38:28;;;;;;;2.75;2.33;;;;;;;;;;4953488;28;20054;-74
2021/11/11 09:40:55;;;;;;;2.42;1.73;;;;;;;;;;4949757;29;20035;-75
2021/11/11 09:43:21;;;;;;;2.55;1.98;;;;;;;;;;4952954;28;20070;-75
2021/11/11 09:45:47;;;;;;;2.40;2.17;;;;;;;;;;4968015;28;20035;-75
2021/11/11 09:48:15;;;;;;;3.30;2.55;;;;;;;;;;4953294;28;20051;-76
2021/11/11 09:50:42;;;;;;;3.58;2.08;;;;;;;;;;4950086;29;20929;-75
2021/11/11 09:53:13;;;;;;;4.65;2.78;;;;;;;;;;4953498;28;20502;-74
2021/11/11 09:58:34;;;;;;;2.38;2.10;;;;;;;;;;4972579;28;20066;-75
2021/11/11 10:01:04;;;;;;;2.85;2.58;;;;;;;;;;4972446;28;20519;-75
2021/11/11 10:03:30;;;;;;;;;;;;;;;;;;4968459;28;20070;-78
2021/11/11 10:05:56;;;;;;;1.65;1.52;;;;;;;;;;4972068;28;20331;-76
2021/11/11 10:08:42;;;;;;;4.47;2.15;;;;;;;;;;4972350;28;20053;-78
2021/11/11 10:11:30;;;;;;;6.82;2.30;;;;;;;;;;4952918;28;20082;-76
2021/11/11 10:13:58;;;;;;;6.57;2.08;;;;;;;;;;4955114;28;20047;-76
2021/11/11 10:16:26;;;;;;;3.75;2.08;;;;;;;;;;4972173;28;20047;-76
2021/11/11 10:18:57;;;;;;;5.43;2.05;;;;;;;;;;4970935;28;20046;-75
2021/11/11 10:21:57;;;;;;;3.25;2.40;;;;;;;;;;4970657;28;20047;-72
2021/11/11 10:24:23;;;;;;;6.15;2.08;;;;;;;;;;4951336;28;20145;-71
2021/11/11 10:27:11;;;;;;;3.55;2.00;;;;;;;;;;4951462;28;20064;-71
2021/11/11 10:29:47;;;;;;;4.15;2.28;;;;;;;;;;4934887;29;20043;-71
2021/11/11 10:32:26;;;;;;;5.60;2.38;;;;;;;;;;4952865;28;20094;-72
2021/11/11 10:34:54;;;;;;;3.92;1.90;;;;;;;;;;4953200;29;20043;-71
2021/11/11 10:37:22;;;;;;;2.97;1.92;;;;;;;;;;4954148;28;20520;-72
2021/11/11 10:40:16;;;;;;;3.00;2.25;;;;;;;;;;4952242;29;20043;-72
2021/11/11 10:42:44;;;;;;;4.93;2.08;;;;;;;;;;4951093;28;20075;-72
2021/11/11 10:45:23;;;;;;;1.98;1.88;;;;;;;;;;4953483;29;20059;-71
2021/11/11 10:47:52;;;;;;;5.13;2.83;;;;;;;;;;4950638;28;20540;-72
2021/11/11 10:50:45;;;;;;;6.15;2.67;;;;;;;;;;4953553;28;20058;-73
2021/11/11 10:53:13;;;;;;;2.17;2.03;;;;;;;;;;4949390;29;20138;-73
2021/11/11 10:55:42;;;;;;;4.25;2.25;;;;;;;;;;4952878;29;20039;-72
2021/11/11 10:58:20;;;;;;;2.55;2.15;;;;;;;;;;4951795;29;20110;-72
2021/11/11 11:00:53;;;;;;;4.28;2.22;;;;;;;;;;4935965;29;20608;-71
2021/11/11 11:03:26;;;;;;;2.45;2.10;;;;;;;;;;4952790;29;20043;-72
2021/11/11 11:06:00;;;;;;;3.08;2.25;;;;;;;;;;4953277;29;20047;-71
2021/11/11 11:08:38;;;;;;;4.90;2.70;;;;;;;;;;4950858;29;20051;-72
2021/11/11 11:11:11;;;;;;;5.35;2.67;;;;;;;;;;4935345;29;20043;-72
2021/11/11 11:13:39;;;;;;;2.03;1.88;;;;;;;;;;4952952;29;20047;-73
2021/11/11 11:16:07;;;;;;;2.72;2.15;;;;;;;;;;4953266;29;20047;-72
2021/11/11 11:18:38;;;;;;;5.00;2.30;;;;;;;;;;4951732;29;20564;-71
2021/11/11 11:21:13;;;;;;;4.72;2.05;;;;;;;;;;4953300;29;20043;-71
2021/11/11 11:23:49;;;;;;;4.97;2.03;;;;;;;;;;4966250;28;20053;-72
2021/11/11 11:26:27;;;;;;;3.85;1.70;;;;;;;;;;4972138;28;20046;-71
2021/11/11 11:31:49;;;;;;;4.72;2.33;;;;;;;;;;4970443;28;20043;-71
2021/11/11 11:34:27;;;;;;;2.40;1.95;;;;;;;;;;4969124;28;20051;-73
2021/11/11 11:36:59;;;;;;;4.97;2.35;;;;;;;;;;4971810;28;20046;-72
2021/11/11 11:39:28;;;;;;;3.38;2.33;;;;;;;;;;4972129;28;20125;-72
2021/11/11 11:41:56;;;;;;;8.27;1.77;;;;;;;;;;4954605;28;20034;-71
2021/11/11 11:44:28;;;;;;;4.82;2.38;;;;;;;;;;4972158;28;20129;-73
2021/11/11 11:47:02;;;;;;;5.20;1.60;;;;;;;;;;4971422;28;20043;-71
2021/11/11 11:49:29;;;;;;;3.80;2.58;;;;;;;;;;4970300;28;20047;-74
2021/11/11 11:51:55;;;;;;;4.50;2.55;;;;;;;;;;4967881;28;20050;-75
2021/11/11 11:59:53;;;;;;;4.75;1.95;;;;;;;;;;4968922;28;20333;-74
2021/11/11 12:02:33;;;;;;;6.72;1.98;;;;;;;;;;4968264;28;20133;-74
2021/11/11 12:07:56;;;;;;;2.08;1.88;;;;;;;;;;4926496;28;20411;-74
2021/11/11 12:15:52;;;;;;;3.17;1.80;;;;;;;;;;4970830;28;20039;-74
2021/11/11 12:28:26;;;;;;;4.53;2.65;;;;;;;;;;4969598;28;20054;-74
2021/11/11 12:34:13;;;;;;;4.00;2.42;;;;;;;;;;4950580;29;20193;-75
2021/11/11 12:41:07;;;;;;;2.78;2.15;;;;;;;;;;4952432;29;20043;-74
2021/11/11 12:43:32;;;;;;;2.38;2.17;;;;;;;;;;4953089;28;20035;-75
2021/11/11 12:45:59;;;;;;;4.65;2.03;;;;;;;;;;4955973;29;20050;-75
2021/11/11 12:48:25;;;;;;;4.22;2.42;;;;;;;;;;4954572;29;20038;-73
2021/11/11 12:51:00;;;;;;;1.70;1.27;;;;;;;;;;4953882;29;20459;-73
2021/11/11 12:53:45;;;;;;;3.55;2.28;;;;;;;;;;4954447;29;20043;-75
2021/11/11 12:56:18;;;;;;;3.70;2.80;;;;;;;;;;4953907;29;20050;-73
2021/11/11 12:59:09;;;;;;;3.20;1.88;;;;;;;;;;4952635;29;20051;-74
2021/11/11 13:01:38;;;;;;;3.65;2.42;;;;;;;;;;4951677;29;20138;-74
2021/11/11 13:04:12;;;;;;;2.95;1.67;;;;;;;;;;4954301;29;20409;-74
2021/11/11 13:06:44;;;;;;;5.05;2.80;;;;;;;;;;4953103;29;20159;-74
2021/11/11 13:09:34;;;;;;;2.75;2.50;;;;;;;;;;4954455;29;20798;-73
2021/11/11 13:12:05;;;;;;;3.10;2.65;;;;;;;;;;4949109;29;20111;-74
2021/11/11 13:14:35;;;;;;;5.15;2.90;;;;;;;;;;4954326;29;20164;-73
2021/11/11 13:17:00;;;;;;;4.10;3.72;;;;;;;;;;4954726;29;20512;-74
2021/11/11 13:19:41;;;;;;;7.05;4.00;;;;;;;;;;4954578;29;20047;-73
2021/11/11 16:24:33;;;;;;;5.75;3.88;;;;;;;;;;4956517;29;20117;-74
2021/11/11 16:27:02;;;;;;;5.80;4.88;;;;;;;;;;4947151;28;20075;-73
2021/11/11 16:29:28;;;;;;;6.10;3.72;;;;;;;;;;4955032;29;20098;-74
2021/11/11 16:31:56;;;;;;;6.25;3.72;;;;;;;;;;4964481;28;20511;-74
2021/11/11 16:34:23;;;;;;;6.28;4.18;;;;;;;;;;4973140;28;20553;-73
2021/11/11 16:36:49;;;;;;;4.93;4.35;;;;;;;;;;4974174;28;20416;-74
2021/11/11 16:39:16;;;;;;;5.03;3.78;;;;;;;;;;4974909;28;20042;-72
2021/11/11 16:41:42;;;;;;;6.50;3.97;;;;;;;;;;4974432;28;20047;-74
2021/11/11 16:44:10;;;;;;;6.97;3.95;;;;;;;;;;4961872;28;20126;-74
2021/11/11 16:46:37;;;;;;;7.95;3.90;;;;;;;;;;4955253;29;20061;-73
2021/11/11 16:49:04;;;;;;;4.95;3.78;;;;;;;;;;4934750;29;20043;-74
2021/11/11 16:51:33;;;;;;;7.32;4.22;;;;;;;;;;4954112;29;20039;-74
2021/11/11 16:53:59;;;;;;;7.00;4.05;;;;;;;;;;4953173;29;20043;-74
2021/11/11 16:56:26;;;;;;;6.00;5.30;;;;;;;;;;4952236;29;20466;-74
2021/11/11 16:58:51;;;;;;;6.13;4.80;;;;;;;;;;4934693;29;20055;-75
2021/11/11 17:01:18;;;;;;;7.82;4.07;;;;;;;;;;4955324;29;20519;-73
2021/11/11 17:03:44;;;;;;;8.00;4.50;;;;;;;;;;4950986;29;20517;-74
2021/11/11 17:06:09;;;;;;;4.25;3.35;;;;;;;;;;4953969;29;20079;-74
2021/11/11 17:08:35;;;;;;;5.75;3.65;;;;;;;;;;4964594;28;20039;-74
2021/11/11 17:11:01;;;;;;;7.47;3.95;;;;;;;;;;4957375;28;20509;-75
2021/11/11 17:13:27;;;;;;;9.05;4.72;;;;;;;;;;4954429;28;20079;-73
2021/11/11 17:15:52;;;;;;;8.77;3.92;;;;;;;;;;4943779;28;20047;-73
2021/11/11 17:18:21;;;;;;;6.50;3.95;;;;;;;;;;4967228;28;20039;-75
2021/11/11 17:20:46;;;;;;;7.20;4.35;;;;;;;;;;4955389;28;20105;-74
2021/11/11 17:23:20;;;;;;;6.05;5.45;;;;;;;;;;4966286;28;20042;-73
2021/11/11 17:28:26;;;;;;;8.80;4.20;;;;;;;;;;4958760;28;20081;-75
2021/11/11 17:31:00;;;;;;;9.73;4.20;;;;;;;;;;4954541;28;20492;-74
2021/11/11 17:33:27;;;;;;;7.68;4.13;;;;;;;;;;4940778;28;20066;-75
2021/11/11 17:35:54;;;;;;;7.57;4.57;;;;;;;;;;4957847;28;20050;-75
2021/11/11 17:38:20;;;;;;;8.75;4.80;;;;;;;;;;4950485;28;20051;-75
2021/11/11 17:40:57;;;;;;;6.10;4.40;;;;;;;;;;4957303;28;20047;-74
2021/11/11 17:43:26;;;;;;;4.68;3.88;;;;;;;;;;4973263;28;20101;-74
2021/11/11 17:46:29;;;;;;;7.38;4.03;;;;;;;;;;4963191;28;20043;-75
2021/11/11 17:48:50;;;;;;;7.28;4.65;;;;;;;;;;4966210;28;20049;-73
2021/11/11 17:53:51;;;;;;;4.90;3.95;;;;;;;;;;4961865;28;20496;-75
2021/11/11 17:56:17;;;;;;;8.45;4.80;;;;;;;;;;4961361;28;20051;-74
2021/11/11 17:58:45;;;;;;;8.00;3.90;;;;;;;;;;4938834;29;20047;-76
2021/11/11 18:01:19;;;;;;;4.45;4.05;;;;;;;;;;4957112;28;20513;-74
2021/11/11 18:03:47;;;;;;;9.18;3.92;;;;;;;;;;4960231;28;20059;-75
2021/11/11 18:08:44;;;;;;;4.80;4.18;;;;;;;;;;4961390;28;20150;-74
2021/11/11 18:11:13;;;;;;;8.52;3.88;;;;;;;;;;4970367;28;20145;-75
2021/11/11 18:13:42;;;;;;;6.28;5.70;;;;;;;;;;4938403;28;20046;-75
2021/11/11 18:16:14;;;;;;;8.70;4.80;;;;;;;;;;4960731;28;20083;-74
2021/11/11 18:18:40;;;;;;;5.93;3.58;;;;;;;;;;4956868;28;20527;-73
2021/11/11 18:21:07;;;;;;;7.03;3.97;;;;;;;;;;4960011;28;20058;-73
2021/11/11 18:23:34;;;;;;;4.53;4.13;;;;;;;;;;4950794;29;20768;-74
2021/11/11 18:26:01;;;;;;;5.70;3.85;;;;;;;;;;4956710;28;20074;-74
2021/11/11 18:28:30;;;;;;;5.93;4.13;;;;;;;;;;4958387;28;20054;-75
2021/11/11 18:31:01;;;;;;;5.00;4.22;;;;;;;;;;4960386;28;20140;-75
2021/11/11 18:33:37;;;;;;;8.25;4.55;;;;;;;;;;4960862;28;20051;-75
2021/11/11 18:36:03;;;;;;;8.18;4.32;;;;;;;;;;4939745;29;20090;-73
2021/11/11 18:38:30;;;;;;;4.32;3.03;;;;;;;;;;4929128;28;20413;-74
2021/11/11 18:40:58;;;;;;;14.93;4.85;;;;;;;;;;4949313;29;20047;-75
2021/11/11 18:43:27;;;;;;;6.93;4.18;;;;;;;;;;4950083;28;20039;-74
2021/11/11 18:46:01;;;;;;;10.65;5.47;;;;;;;;;;4970058;28;20138;-74
2021/11/11 18:48:41;;;;;;;12.75;4.93;;;;;;;;;;4954931;28;20045;-76
2021/11/11 18:51:28;;;;;;;8.50;4.72;;;;;;;;;;4955479;28;20099;-73
2021/11/11 18:53:54;;;;;;;7.28;4.13;;;;;;;;;;4957037;28;20237;-74
2021/11/11 18:56:20;;;;;;;5.88;4.53;;;;;;;;;;4956875;28;20050;-75
2021/11/11 18:58:45;;;;;;;8.60;4.45;;;;;;;;;;4964598;28;20078;-73
2021/11/11 19:01:12;;;;;;;6.47;4.13;;;;;;;;;;4954284;28;20049;-74
2021/11/11 19:03:40;;;;;;;9.00;4.13;;;;;;;;;;4968976;28;20094;-73